createdAt,value
2023-04-02T06:01:41.336Z,93.69
2023-04-02T06:04:34.593Z,93.67
2023-04-02T06:07:06.023Z,93.57
2023-04-02T06:09:41.081Z,93.66
2023-04-02T06:12:15.984Z,93.27
2023-04-02T06:14:43.329Z,92.84
2023-04-02T06:17:20.718Z,92.87
2023-04-02T06:19:48.017Z,92.67
2023-04-02T06:22:34.395Z,92.50
2023-04-02T06:25:06.854Z,92.41
2023-04-02T06:27:40.113Z,92.24
2023-04-02T06:30:16.460Z,92.25
2023-04-02T06:32:43.361Z,92.00
2023-04-02T06:35:14.929Z,91.97
2023-04-02T06:37:46.318Z,91.55
2023-04-02T06:40:31.225Z,91.53
2023-04-02T06:42:59.793Z,91.32
2023-04-02T06:45:39.821Z,91.28
2023-04-02T06:48:19.351Z,91.57
2023-04-02T06:51:18.685Z,91.29
2023-04-02T06:53:49.774Z,91.37
2023-04-02T06:56:36.964Z,91.32
2023-04-02T06:59:07.575Z,91.20
2023-04-02T07:01:48.780Z,91.23
2023-04-02T07:04:15.675Z,91.10
2023-04-02T07:06:45.260Z,90.61
2023-04-02T07:09:14.001Z,90.42
2023-04-02T07:11:44.460Z,90.47
2023-04-02T07:14:12.887Z,90.48
2023-04-02T07:16:40.014Z,90.58
2023-04-02T07:19:06.775Z,90.77
2023-04-02T07:21:37.032Z,90.81
2023-04-02T07:24:03.571Z,90.77
2023-04-02T07:26:30.067Z,90.65
2023-04-02T07:28:56.883Z,90.72
2023-04-02T07:31:25.857Z,90.48
2023-04-02T07:33:59.598Z,90.17
2023-04-02T07:36:28.000Z,90.04
2023-04-02T07:38:55.836Z,89.67
2023-04-02T07:41:23.222Z,89.38
2023-04-02T07:43:49.940Z,89.24
2023-04-02T07:46:16.741Z,89.00
2023-04-02T07:48:44.075Z,88.81
2023-04-02T07:51:22.293Z,88.57
2023-04-02T07:53:50.178Z,88.24
2023-04-02T07:56:18.775Z,88.03
2023-04-02T07:58:45.691Z,87.43
2023-04-02T08:01:21.240Z,86.98
2023-04-02T08:03:47.942Z,86.89
2023-04-02T08:06:14.540Z,87.23
2023-04-02T08:08:41.125Z,87.37
2023-04-02T08:11:08.368Z,87.16
2023-04-02T08:13:34.960Z,86.90
2023-04-02T08:16:02.238Z,86.96
2023-04-02T08:18:29.803Z,87.29
2023-04-02T08:20:56.658Z,87.42
2023-04-02T08:23:23.206Z,87.37
2023-04-02T08:25:50.469Z,87.13
2023-04-02T08:28:17.240Z,87.12
2023-04-02T08:30:43.863Z,87.30
2023-04-02T08:33:10.732Z,87.52
2023-04-02T08:35:37.524Z,87.20
2023-04-02T08:38:04.191Z,87.41
2023-04-02T08:40:39.017Z,87.24
2023-04-02T08:43:05.355Z,87.41
2023-04-02T08:46:02.750Z,87.39
2023-04-02T08:48:31.242Z,87.32
2023-04-02T08:50:58.835Z,87.61
2023-04-02T08:53:28.572Z,88.03
2023-04-02T08:56:06.107Z,88.44
2023-04-02T08:58:42.940Z,88.55
2023-04-02T09:01:39.655Z,88.83
2023-04-02T09:04:14.245Z,89.36
2023-04-02T09:06:43.597Z,88.79
2023-04-02T09:09:12.514Z,89.26
2023-04-02T09:11:53.084Z,89.28
2023-04-02T09:14:22.717Z,89.70
2023-04-02T09:16:56.039Z,90.11
2023-04-02T09:19:33.463Z,90.24
2023-04-02T09:22:18.284Z,90.60
2023-04-02T09:24:45.611Z,90.56
2023-04-02T09:27:19.051Z,89.69
2023-04-02T09:29:47.535Z,89.57
2023-04-02T09:32:23.661Z,89.78
2023-04-02T09:34:50.173Z,89.63
2023-04-02T09:37:19.356Z,89.13
2023-04-02T09:39:46.054Z,88.81
2023-04-02T09:42:33.820Z,89.09
2023-04-02T09:45:13.788Z,88.92
2023-04-02T09:47:42.460Z,88.20
2023-04-02T09:50:20.837Z,88.14
2023-04-02T09:52:48.296Z,87.84
2023-04-02T09:55:15.281Z,87.80
2023-04-02T09:57:42.652Z,88.49
2023-04-02T10:00:32.086Z,88.32
2023-04-02T10:03:25.922Z,88.56
2023-04-02T10:06:13.355Z,88.21
2023-04-02T10:08:42.257Z,88.35
2023-04-02T10:11:14.821Z,87.83
2023-04-02T10:13:57.866Z,88.42
2023-04-02T10:16:34.037Z,87.68
2023-04-02T10:19:23.361Z,87.58
2023-04-02T10:21:49.736Z,87.59
2023-04-02T10:24:17.131Z,87.46
2023-04-02T10:26:51.290Z,87.27
2023-04-02T10:29:44.175Z,87.59
2023-04-02T10:32:16.495Z,88.20
2023-04-02T10:34:44.096Z,88.04
2023-04-02T10:37:24.219Z,88.12
2023-04-02T10:39:54.450Z,87.00
2023-04-02T10:42:30.587Z,87.28
2023-04-02T10:45:23.845Z,87.03
2023-04-02T10:48:00.794Z,87.27
2023-04-02T10:50:38.253Z,87.03
2023-04-02T10:53:14.830Z,86.78
2023-04-02T10:55:44.379Z,86.40
2023-04-02T10:58:25.490Z,86.54
2023-04-02T11:00:55.198Z,86.47
2023-04-02T11:03:45.083Z,86.71
2023-04-02T11:06:19.529Z,86.91
2023-04-02T11:08:48.112Z,86.88
2023-04-02T11:11:17.266Z,86.92
2023-04-02T11:14:11.293Z,87.21
2023-04-02T11:16:40.738Z,86.97
2023-04-02T11:19:15.939Z,87.43
2023-04-02T11:21:57.238Z,87.34
2023-04-02T11:24:32.926Z,87.43
2023-04-02T11:27:14.396Z,87.77
2023-04-02T11:29:42.656Z,87.97
2023-04-02T11:32:25.300Z,86.49
2023-04-02T11:35:05.962Z,85.83
2023-04-02T11:37:44.708Z,86.84
2023-04-02T11:40:11.088Z,87.16
2023-04-02T11:42:45.562Z,86.37
2023-04-02T11:45:21.402Z,86.28
2023-04-02T11:48:08.373Z,86.55
2023-04-02T11:50:41.949Z,86.39
2023-04-02T11:53:14.753Z,86.50
2023-04-02T11:55:42.080Z,86.57
2023-04-02T11:58:36.285Z,86.03
2023-04-02T12:01:05.485Z,86.11
2023-04-02T12:03:44.236Z,85.94
2023-04-02T12:06:47.682Z,86.03
2023-04-02T12:09:27.184Z,85.69
2023-04-02T12:11:56.176Z,85.84
2023-04-02T12:14:37.649Z,85.19
2023-04-02T12:17:08.487Z,85.63
2023-04-02T12:19:36.744Z,85.39
2023-04-02T12:22:03.364Z,85.49
2023-04-02T12:24:31.332Z,85.47
2023-04-02T12:27:17.767Z,85.51
2023-04-02T12:29:44.356Z,85.76
2023-04-02T12:32:24.884Z,85.61
2023-04-02T12:34:52.777Z,86.21
2023-04-02T12:37:21.883Z,86.34
2023-04-02T12:39:56.587Z,86.61
2023-04-02T12:42:31.881Z,86.46
2023-04-02T12:44:58.394Z,86.39
2023-04-02T12:47:25.186Z,86.31
2023-04-02T12:49:52.631Z,86.55
2023-04-02T12:52:21.581Z,87.33
2023-04-02T12:54:50.356Z,86.97
2023-04-02T12:57:26.132Z,86.71
2023-04-02T13:00:01.375Z,86.75
2023-04-02T13:02:30.129Z,86.72
2023-04-02T13:05:01.176Z,87.12
2023-04-02T13:07:30.730Z,86.35
2023-04-02T13:09:59.374Z,86.18
2023-04-02T13:12:34.201Z,86.34
2023-04-02T13:15:03.105Z,86.63
2023-04-02T13:17:37.240Z,86.62
2023-04-02T13:20:27.338Z,86.67
2023-04-02T13:22:53.865Z,86.80
2023-04-02T13:25:27.821Z,85.68
2023-04-02T13:27:54.563Z,85.43
2023-04-02T13:30:24.475Z,86.00
2023-04-02T13:32:51.016Z,86.01
2023-04-02T13:35:17.656Z,86.29
2023-04-02T13:37:44.394Z,85.76
2023-04-02T13:40:14.925Z,85.95
2023-04-02T13:42:42.508Z,85.97
2023-04-02T13:45:36.609Z,85.79
2023-04-02T13:48:04.080Z,85.56
2023-04-02T13:50:32.570Z,85.78
2023-04-02T13:53:05.972Z,85.67
2023-04-02T13:55:36.661Z,86.02
2023-04-02T13:58:04.004Z,85.91
2023-04-02T14:00:31.301Z,86.33
2023-04-02T14:03:07.333Z,86.54
2023-04-02T14:05:59.151Z,86.05
2023-04-02T14:08:56.920Z,85.73
2023-04-02T14:11:48.121Z,86.24
2023-04-02T14:14:45.465Z,86.77
2023-04-02T14:17:49.725Z,86.22
2023-04-02T14:20:25.166Z,86.12
2023-04-02T14:23:00.629Z,86.35
2023-04-02T14:25:38.985Z,85.97
2023-04-02T14:28:37.752Z,86.14
2023-04-02T14:31:18.096Z,86.34
2023-04-02T14:34:13.212Z,87.03
2023-04-02T14:36:51.797Z,86.21
2023-04-02T14:39:18.375Z,86.61
2023-04-02T14:41:50.842Z,85.81
2023-04-02T14:44:20.038Z,85.32
2023-04-02T14:46:47.063Z,84.19
2023-04-02T14:49:23.784Z,84.53
2023-04-02T14:51:56.184Z,84.68
2023-04-02T14:54:42.574Z,84.78
2023-04-02T14:57:22.995Z,85.11
2023-04-02T15:00:04.897Z,84.15
2023-04-02T15:02:51.663Z,84.46
2023-04-02T15:05:28.435Z,84.09
2023-04-02T15:08:03.280Z,83.14
2023-04-02T15:10:32.014Z,83.20
2023-04-02T15:13:00.471Z,83.71
2023-04-02T15:15:43.409Z,84.07
2023-04-02T15:18:13.045Z,84.07
2023-04-02T15:21:09.040Z,83.82
2023-04-02T15:24:12.989Z,83.02
2023-04-02T15:27:21.895Z,83.37
2023-04-02T15:29:58.509Z,83.29
2023-04-02T15:32:32.311Z,83.16
2023-04-02T15:35:29.344Z,83.15
2023-04-02T15:38:20.122Z,83.35
2023-04-02T15:40:49.339Z,83.15
2023-04-02T15:43:34.261Z,83.16
2023-04-02T15:46:27.106Z,83.45
2023-04-02T15:49:15.341Z,82.39
2023-04-02T15:51:48.462Z,82.03
2023-04-02T15:54:16.357Z,81.88
2023-04-02T15:57:18.610Z,82.38
2023-04-02T15:59:57.121Z,80.90
2023-04-02T16:03:02.469Z,81.83
2023-04-02T16:06:16.762Z,81.97
2023-04-02T16:09:07.986Z,82.04
2023-04-02T16:11:34.809Z,81.47
2023-04-02T16:14:13.277Z,81.10
2023-04-02T16:16:40.246Z,81.04
2023-04-02T16:19:16.789Z,81.43
2023-04-02T16:21:49.169Z,82.08
2023-04-02T16:24:15.832Z,81.64
2023-04-02T16:27:05.605Z,81.45
2023-04-02T16:29:55.180Z,81.37
2023-04-02T16:32:49.853Z,80.90
2023-04-02T16:35:42.781Z,80.47
2023-04-02T16:38:24.945Z,80.06
2023-04-02T16:41:07.023Z,79.75
2023-04-02T16:43:34.929Z,79.00
2023-04-02T16:46:38.971Z,79.30
2023-04-02T16:49:31.397Z,79.61
2023-04-02T16:52:03.992Z,78.65
2023-04-02T16:55:00.940Z,78.57
2023-04-02T16:57:31.361Z,78.42
2023-04-02T17:00:42.942Z,78.00
2023-04-02T17:03:24.656Z,78.13
2023-04-02T17:05:55.777Z,77.67
2023-04-02T17:08:26.917Z,77.38
2023-04-02T17:11:06.317Z,77.07
2023-04-02T17:13:47.358Z,77.79
2023-04-02T17:16:20.081Z,77.82
2023-04-02T17:18:48.794Z,77.60
2023-04-02T17:21:19.289Z,77.42
2023-04-02T17:24:02.650Z,76.06
2023-04-02T17:26:30.835Z,76.03
2023-04-02T17:28:59.033Z,75.61
2023-04-02T17:31:27.597Z,75.69
2023-04-02T17:33:54.037Z,76.37
2023-04-02T17:36:35.786Z,76.02
2023-04-02T17:39:35.651Z,75.68
2023-04-02T17:42:10.536Z,76.51
2023-04-02T17:44:56.660Z,76.96
2023-04-02T17:47:26.973Z,77.07
2023-04-02T17:50:24.541Z,77.10
2023-04-02T17:53:04.625Z,75.72
2023-04-02T17:55:50.402Z,76.05
2023-04-02T17:58:38.333Z,75.76
2023-04-02T18:01:14.340Z,75.26
2023-04-02T18:03:53.142Z,75.23
2023-04-02T18:06:30.842Z,73.58
2023-04-02T18:09:40.972Z,73.54
2023-04-02T18:12:38.527Z,74.53
2023-04-02T18:15:15.632Z,74.10
2023-04-02T18:17:48.486Z,72.79
2023-04-02T18:20:35.382Z,74.02
2023-04-02T18:23:38.541Z,74.88
2023-04-02T18:26:27.858Z,73.98
2023-04-02T18:29:30.318Z,73.54
2023-04-02T18:32:15.228Z,74.11
2023-04-02T18:35:20.623Z,73.59
2023-04-02T18:37:57.994Z,73.35
2023-04-02T18:40:31.662Z,73.61
2023-04-02T18:43:01.047Z,74.12
2023-04-02T18:45:40.758Z,73.77
2023-04-02T18:48:12.904Z,73.89
2023-04-02T18:50:45.857Z,73.95
2023-04-02T18:53:18.438Z,73.92
2023-04-02T18:55:49.556Z,73.38
2023-04-02T18:58:23.106Z,72.99
2023-04-02T19:00:50.098Z,73.31
2023-04-02T19:03:17.855Z,73.29
2023-04-02T19:05:51.385Z,73.24
2023-04-02T19:08:22.174Z,73.17
2023-04-02T19:10:53.902Z,73.55
2023-04-02T19:13:21.295Z,73.09
2023-04-02T19:16:13.517Z,72.67
2023-04-02T19:19:00.012Z,72.51
2023-04-02T19:21:54.378Z,72.83
2023-04-02T19:24:28.031Z,72.88
2023-04-02T19:26:59.658Z,72.61
2023-04-02T19:29:59.321Z,73.10
2023-04-02T19:32:34.144Z,73.07
2023-04-02T19:35:28.024Z,72.97
2023-04-02T19:38:15.881Z,72.92
2023-04-02T19:40:51.340Z,73.00
2023-04-02T19:43:18.034Z,73.19
2023-04-02T19:45:46.824Z,73.40
2023-04-02T19:48:26.508Z,72.44
2023-04-02T19:50:53.644Z,72.42
2023-04-02T19:53:20.200Z,72.44
2023-04-02T19:55:46.753Z,72.38
2023-04-02T19:58:26.285Z,72.86
2023-04-02T20:00:52.818Z,72.56
2023-04-02T20:03:19.341Z,72.82
2023-04-02T20:05:46.087Z,72.75
2023-04-02T20:08:12.498Z,72.59
2023-04-02T20:10:39.119Z,72.94
2023-04-02T20:13:05.872Z,73.14
2023-04-02T20:15:32.379Z,72.15
2023-04-02T20:17:58.826Z,71.91
2023-04-02T20:20:25.303Z,71.38
2023-04-02T20:22:51.754Z,71.37
2023-04-02T20:25:19.286Z,71.06
2023-04-02T20:27:46.002Z,71.11
2023-04-02T20:30:12.603Z,70.99
2023-04-02T20:32:39.166Z,70.68
2023-04-02T20:35:06.046Z,70.70
2023-04-02T20:37:32.779Z,70.64
2023-04-02T20:39:59.213Z,70.89
2023-04-02T20:42:25.953Z,70.61
2023-04-02T20:44:52.522Z,71.04
2023-04-02T20:47:19.331Z,71.46
2023-04-02T20:49:45.813Z,71.11
2023-04-02T20:52:12.321Z,71.28
2023-04-02T20:54:38.752Z,71.31
2023-04-02T20:57:07.721Z,71.19
2023-04-02T20:59:34.249Z,72.00
2023-04-02T21:02:00.749Z,72.28
2023-04-02T21:04:27.860Z,71.77
2023-04-02T21:06:56.941Z,71.77
2023-04-02T21:09:23.597Z,71.45
2023-04-02T21:11:50.231Z,71.18
2023-04-02T21:14:18.073Z,70.89
2023-04-02T21:16:44.857Z,71.00
2023-04-02T21:19:11.321Z,71.87
2023-04-02T21:21:38.924Z,72.46
2023-04-02T21:24:07.227Z,72.53
2023-04-02T21:26:36.829Z,72.99
2023-04-02T21:29:03.496Z,72.99
2023-04-02T21:31:34.223Z,73.36
2023-04-02T21:34:00.724Z,73.61
2023-04-02T21:36:35.310Z,73.81
2023-04-02T21:39:15.901Z,72.65
2023-04-02T21:41:43.904Z,72.56
2023-04-02T21:44:13.893Z,71.93
2023-04-02T21:46:44.895Z,71.81
2023-04-02T21:49:13.856Z,72.19
2023-04-02T21:51:42.063Z,72.47
2023-04-02T21:54:08.885Z,72.74
2023-04-02T21:56:37.495Z,73.22
2023-04-02T21:59:05.737Z,73.45
2023-04-02T22:01:38.153Z,73.29
2023-04-02T22:04:06.139Z,73.56
2023-04-02T22:06:36.782Z,73.84
2023-04-02T22:09:06.771Z,74.14
2023-04-02T22:11:36.375Z,74.29
2023-04-02T22:14:03.924Z,74.88
2023-04-02T22:16:31.934Z,75.20
2023-04-02T22:19:00.811Z,75.09
2023-04-02T22:21:28.448Z,74.24
2023-04-02T22:23:55.284Z,74.17
2023-04-02T22:26:25.602Z,74.51
2023-04-02T22:28:52.629Z,74.76
2023-04-02T22:31:24.538Z,74.92
2023-04-02T22:33:51.776Z,75.11
2023-04-02T22:36:18.837Z,75.30
2023-04-02T22:38:45.850Z,75.65
2023-04-02T22:41:14.728Z,75.93
2023-04-02T22:43:43.752Z,76.26
2023-04-02T22:46:12.548Z,76.36
2023-04-02T22:48:42.190Z,76.43
2023-04-02T22:51:10.339Z,77.21
2023-04-02T22:53:37.341Z,77.47
2023-04-02T22:56:11.273Z,77.41
2023-04-02T22:58:37.936Z,77.97
2023-04-02T23:01:05.738Z,77.83
2023-04-02T23:03:33.626Z,78.08
2023-04-02T23:06:07.186Z,78.20
2023-04-02T23:08:34.821Z,78.32
2023-04-02T23:11:09.450Z,78.30
2023-04-02T23:13:36.716Z,78.55
2023-04-02T23:16:05.525Z,78.82
2023-04-02T23:18:33.537Z,78.89
2023-04-02T23:21:00.048Z,79.24
2023-04-02T23:23:26.937Z,79.58
2023-04-02T23:26:11.670Z,79.72
2023-04-02T23:28:39.864Z,80.07
2023-04-02T23:31:08.905Z,80.48
2023-04-02T23:33:35.588Z,80.53
2023-04-02T23:36:18.643Z,80.73
2023-04-02T23:38:45.146Z,80.82
2023-04-02T23:41:17.800Z,80.80
2023-04-02T23:43:44.425Z,80.75
2023-04-02T23:46:11.533Z,80.73
2023-04-02T23:48:38.021Z,80.81
2023-04-02T23:51:10.688Z,81.24
2023-04-02T23:53:37.110Z,81.09
2023-04-02T23:56:03.679Z,81.48
2023-04-02T23:58:30.237Z,81.38
